sensor_id;sensor_type;location;lat;lon;timestamp;P1;durP1;ratioP1;P2;durP2;ratioP2
59998;SDS011;45859;51.378;6.736;2023-10-31T00:01:54;10.47;;;9.47;;
59998;SDS011;45859;51.378;6.736;2023-10-31T00:04:20;8.50;;;7.70;;
59998;SDS011;45859;51.378;6.736;2023-10-31T00:06:46;6.63;;;6.07;;
59998;SDS011;45859;51.378;6.736;2023-10-31T00:09:12;7.83;;;7.13;;
59998;SDS011;45859;51.378;6.736;2023-10-31T00:11:40;8.70;;;7.90;;
59998;SDS011;45859;51.378;6.736;2023-10-31T00:14:07;12.13;;;11.03;;
59998;SDS011;45859;51.378;6.736;2023-10-31T00:16:33;7.67;;;4.10;;
59998;SDS011;45859;51.378;6.736;2023-10-31T00:18:59;11.33;;;10.30;;
59998;SDS011;45859;51.378;6.736;2023-10-31T00:21:25;9.50;;;8.70;;
59998;SDS011;45859;51.378;6.736;2023-10-31T00:23:51;9.90;;;9.00;;
59998;SDS011;45859;51.378;6.736;2023-10-31T00:26:17;10.30;;;9.37;;
59998;SDS011;45859;51.378;6.736;2023-10-31T00:28:43;6.60;;;6.00;;
59998;SDS011;45859;51.378;6.736;2023-10-31T00:31:09;3.23;;;1.73;;
59998;SDS011;45859;51.378;6.736;2023-10-31T00:33:36;3.70;;;2.60;;
59998;SDS011;45859;51.378;6.736;2023-10-31T00:36:03;1.93;;;1.40;;
59998;SDS011;45859;51.378;6.736;2023-10-31T00:38:29;4.90;;;4.50;;
59998;SDS011;45859;51.378;6.736;2023-10-31T00:40:55;4.17;;;3.10;;
59998;SDS011;45859;51.378;6.736;2023-10-31T00:43:21;3.57;;;3.27;;
59998;SDS011;45859;51.378;6.736;2023-10-31T00:45:47;3.13;;;1.50;;
59998;SDS011;45859;51.378;6.736;2023-10-31T00:48:13;2.27;;;1.50;;
59998;SDS011;45859;51.378;6.736;2023-10-31T00:50:39;2.03;;;1.27;;
59998;SDS011;45859;51.378;6.736;2023-10-31T00:53:05;2.33;;;2.13;;
59998;SDS011;45859;51.378;6.736;2023-10-31T00:55:31;5.60;;;2.60;;
59998;SDS011;45859;51.378;6.736;2023-10-31T00:57:57;6.20;;;5.60;;
59998;SDS011;45859;51.378;6.736;2023-10-31T01:00:23;7.33;;;6.60;;
59998;SDS011;45859;51.378;6.736;2023-10-31T01:02:49;7.67;;;6.97;;
59998;SDS011;45859;51.378;6.736;2023-10-31T01:05:15;5.10;;;3.53;;
59998;SDS011;45859;51.378;6.736;2023-10-31T01:07:41;6.40;;;4.63;;
59998;SDS011;45859;51.378;6.736;2023-10-31T01:10:08;15.93;;;14.43;;
59998;SDS011;45859;51.378;6.736;2023-10-31T01:12:34;17.20;;;15.70;;
59998;SDS011;45859;51.378;6.736;2023-10-31T01:15:00;8.57;;;5.97;;
59998;SDS011;45859;51.378;6.736;2023-10-31T01:17:26;7.87;;;5.43;;
59998;SDS011;45859;51.378;6.736;2023-10-31T01:19:52;14.93;;;13.53;;
59998;SDS011;45859;51.378;6.736;2023-10-31T01:22:18;15.10;;;13.60;;
59998;SDS011;45859;51.378;6.736;2023-10-31T01:24:44;12.77;;;11.47;;
59998;SDS011;45859;51.378;6.736;2023-10-31T01:27:10;12.80;;;11.07;;
59998;SDS011;45859;51.378;6.736;2023-10-31T01:29:36;8.40;;;4.37;;
59998;SDS011;45859;51.378;6.736;2023-10-31T01:32:02;5.73;;;4.50;;
59998;SDS011;45859;51.378;6.736;2023-10-31T01:34:28;13.30;;;11.87;;
59998;SDS011;45859;51.378;6.736;2023-10-31T01:36:54;14.33;;;11.67;;
59998;SDS011;45859;51.378;6.736;2023-10-31T01:39:20;11.87;;;10.63;;
59998;SDS011;45859;51.378;6.736;2023-10-31T01:41:46;7.07;;;3.90;;
59998;SDS011;45859;51.378;6.736;2023-10-31T01:44:13;13.53;;;12.07;;
59998;SDS011;45859;51.378;6.736;2023-10-31T01:46:39;12.20;;;11.10;;
59998;SDS011;45859;51.378;6.736;2023-10-31T01:49:05;12.80;;;11.50;;
59998;SDS011;45859;51.378;6.736;2023-10-31T01:51:32;14.13;;;12.57;;
59998;SDS011;45859;51.378;6.736;2023-10-31T01:53:58;18.03;;;15.30;;
59998;SDS011;45859;51.378;6.736;2023-10-31T01:56:24;16.87;;;12.83;;
59998;SDS011;45859;51.378;6.736;2023-10-31T01:58:51;7.73;;;3.67;;
59998;SDS011;45859;51.378;6.736;2023-10-31T02:01:17;12.30;;;10.90;;
59998;SDS011;45859;51.378;6.736;2023-10-31T02:03:43;12.10;;;10.83;;
59998;SDS011;45859;51.378;6.736;2023-10-31T02:06:09;17.70;;;13.53;;
59998;SDS011;45859;51.378;6.736;2023-10-31T02:08:35;20.23;;;14.17;;
59998;SDS011;45859;51.378;6.736;2023-10-31T02:11:01;13.40;;;5.70;;
59998;SDS011;45859;51.378;6.736;2023-10-31T02:13:28;26.00;;;19.17;;
59998;SDS011;45859;51.378;6.736;2023-10-31T02:15:54;12.03;;;5.83;;
59998;SDS011;45859;51.378;6.736;2023-10-31T02:18:20;25.07;;;8.53;;
59998;SDS011;45859;51.378;6.736;2023-10-31T02:20:47;14.13;;;7.63;;
59998;SDS011;45859;51.378;6.736;2023-10-31T02:23:15;16.47;;;7.97;;
59998;SDS011;45859;51.378;6.736;2023-10-31T02:25:41;31.43;;;22.10;;
59998;SDS011;45859;51.378;6.736;2023-10-31T02:28:07;15.50;;;8.70;;
59998;SDS011;45859;51.378;6.736;2023-10-31T02:30:33;10.03;;;5.03;;
59998;SDS011;45859;51.378;6.736;2023-10-31T02:33:01;27.80;;;19.90;;
59998;SDS011;45859;51.378;6.736;2023-10-31T02:35:27;28.70;;;21.43;;
59998;SDS011;45859;51.378;6.736;2023-10-31T02:37:52;13.37;;;7.60;;
59998;SDS011;45859;51.378;6.736;2023-10-31T02:40:19;20.63;;;9.00;;
59998;SDS011;45859;51.378;6.736;2023-10-31T02:42:45;36.83;;;25.27;;
59998;SDS011;45859;51.378;6.736;2023-10-31T02:45:11;17.33;;;7.93;;
59998;SDS011;45859;51.378;6.736;2023-10-31T02:47:37;13.23;;;7.60;;
59998;SDS011;45859;51.378;6.736;2023-10-31T02:50:03;16.10;;;7.60;;
59998;SDS011;45859;51.378;6.736;2023-10-31T02:52:29;25.17;;;18.50;;
59998;SDS011;45859;51.378;6.736;2023-10-31T02:54:56;25.03;;;18.07;;
59998;SDS011;45859;51.378;6.736;2023-10-31T02:57:22;25.57;;;18.13;;
59998;SDS011;45859;51.378;6.736;2023-10-31T02:59:48;23.13;;;17.97;;
59998;SDS011;45859;51.378;6.736;2023-10-31T03:02:14;27.50;;;19.17;;
59998;SDS011;45859;51.378;6.736;2023-10-31T03:04:40;23.43;;;18.87;;
59998;SDS011;45859;51.378;6.736;2023-10-31T03:07:06;20.93;;;17.17;;
59998;SDS011;45859;51.378;6.736;2023-10-31T03:09:32;27.00;;;17.73;;
59998;SDS011;45859;51.378;6.736;2023-10-31T03:12:04;22.10;;;8.07;;
59998;SDS011;45859;51.378;6.736;2023-10-31T03:14:30;10.00;;;4.80;;
59998;SDS011;45859;51.378;6.736;2023-10-31T03:16:56;11.60;;;6.53;;
59998;SDS011;45859;51.378;6.736;2023-10-31T03:19:22;14.33;;;5.50;;
59998;SDS011;45859;51.378;6.736;2023-10-31T03:21:48;21.53;;;16.33;;
59998;SDS011;45859;51.378;6.736;2023-10-31T03:24:14;10.50;;;5.53;;
59998;SDS011;45859;51.378;6.736;2023-10-31T03:26:40;36.83;;;25.73;;
59998;SDS011;45859;51.378;6.736;2023-10-31T03:29:06;30.53;;;11.90;;
59998;SDS011;45859;51.378;6.736;2023-10-31T03:31:32;21.80;;;9.93;;
59998;SDS011;45859;51.378;6.736;2023-10-31T03:33:58;31.23;;;21.47;;
59998;SDS011;45859;51.378;6.736;2023-10-31T03:36:24;31.70;;;23.03;;
59998;SDS011;45859;51.378;6.736;2023-10-31T03:38:50;45.50;;;30.97;;
59998;SDS011;45859;51.378;6.736;2023-10-31T03:41:16;43.80;;;30.23;;
59998;SDS011;45859;51.378;6.736;2023-10-31T03:43:43;30.33;;;20.33;;
59998;SDS011;45859;51.378;6.736;2023-10-31T03:46:09;7.20;;;3.63;;
59998;SDS011;45859;51.378;6.736;2023-10-31T03:48:36;16.23;;;6.97;;
59998;SDS011;45859;51.378;6.736;2023-10-31T03:51:02;19.17;;;13.97;;
59998;SDS011;45859;51.378;6.736;2023-10-31T03:53:28;24.50;;;16.30;;
59998;SDS011;45859;51.378;6.736;2023-10-31T03:55:54;18.60;;;7.10;;
59998;SDS011;45859;51.378;6.736;2023-10-31T03:58:20;15.53;;;6.37;;
59998;SDS011;45859;51.378;6.736;2023-10-31T04:00:47;40.43;;;25.97;;
59998;SDS011;45859;51.378;6.736;2023-10-31T04:03:13;41.87;;;26.40;;
59998;SDS011;45859;51.378;6.736;2023-10-31T04:05:39;15.33;;;8.67;;
59998;SDS011;45859;51.378;6.736;2023-10-31T04:08:05;10.90;;;6.97;;
59998;SDS011;45859;51.378;6.736;2023-10-31T04:10:31;41.30;;;30.53;;
59998;SDS011;45859;51.378;6.736;2023-10-31T04:12:57;38.40;;;25.90;;
59998;SDS011;45859;51.378;6.736;2023-10-31T04:15:23;26.93;;;19.73;;
59998;SDS011;45859;51.378;6.736;2023-10-31T04:17:49;26.37;;;18.20;;
59998;SDS011;45859;51.378;6.736;2023-10-31T04:20:15;25.70;;;18.70;;
59998;SDS011;45859;51.378;6.736;2023-10-31T04:22:44;24.00;;;10.73;;
59998;SDS011;45859;51.378;6.736;2023-10-31T04:25:10;11.20;;;6.73;;
59998;SDS011;45859;51.378;6.736;2023-10-31T04:27:36;20.27;;;8.20;;
59998;SDS011;45859;51.378;6.736;2023-10-31T04:30:02;30.37;;;21.13;;
59998;SDS011;45859;51.378;6.736;2023-10-31T04:32:28;35.37;;;22.50;;
59998;SDS011;45859;51.378;6.736;2023-10-31T04:34:54;37.83;;;26.03;;
59998;SDS011;45859;51.378;6.736;2023-10-31T04:37:20;15.83;;;8.53;;
59998;SDS011;45859;51.378;6.736;2023-10-31T04:39:46;20.73;;;8.27;;
59998;SDS011;45859;51.378;6.736;2023-10-31T04:42:12;29.63;;;24.00;;
59998;SDS011;45859;51.378;6.736;2023-10-31T04:44:38;46.03;;;34.40;;
59998;SDS011;45859;51.378;6.736;2023-10-31T04:47:04;20.53;;;8.73;;
59998;SDS011;45859;51.378;6.736;2023-10-31T04:49:32;22.83;;;17.33;;
59998;SDS011;45859;51.378;6.736;2023-10-31T04:52:00;22.67;;;16.63;;
59998;SDS011;45859;51.378;6.736;2023-10-31T04:54:26;24.27;;;17.10;;
59998;SDS011;45859;51.378;6.736;2023-10-31T04:56:52;11.57;;;6.10;;
59998;SDS011;45859;51.378;6.736;2023-10-31T04:59:18;7.40;;;3.40;;
59998;SDS011;45859;51.378;6.736;2023-10-31T05:01:48;20.30;;;17.03;;
59998;SDS011;45859;51.378;6.736;2023-10-31T05:04:15;17.73;;;8.20;;
59998;SDS011;45859;51.378;6.736;2023-10-31T05:06:41;23.60;;;9.60;;
59998;SDS011;45859;51.378;6.736;2023-10-31T05:09:08;13.60;;;7.37;;
59998;SDS011;45859;51.378;6.736;2023-10-31T05:11:35;8.83;;;5.10;;
59998;SDS011;45859;51.378;6.736;2023-10-31T05:14:01;23.20;;;17.17;;
59998;SDS011;45859;51.378;6.736;2023-10-31T05:16:28;20.70;;;16.20;;
59998;SDS011;45859;51.378;6.736;2023-10-31T05:18:54;11.57;;;6.77;;
59998;SDS011;45859;51.378;6.736;2023-10-31T05:21:20;11.13;;;5.53;;
59998;SDS011;45859;51.378;6.736;2023-10-31T05:23:46;17.03;;;7.17;;
59998;SDS011;45859;51.378;6.736;2023-10-31T05:26:12;19.00;;;15.00;;
59998;SDS011;45859;51.378;6.736;2023-10-31T05:28:37;19.27;;;13.90;;
59998;SDS011;45859;51.378;6.736;2023-10-31T05:31:04;10.23;;;4.30;;
59998;SDS011;45859;51.378;6.736;2023-10-31T05:33:29;11.43;;;5.93;;
59998;SDS011;45859;51.378;6.736;2023-10-31T05:35:55;15.73;;;6.90;;
59998;SDS011;45859;51.378;6.736;2023-10-31T05:38:21;21.03;;;14.97;;
59998;SDS011;45859;51.378;6.736;2023-10-31T05:40:47;19.57;;;14.90;;
59998;SDS011;45859;51.378;6.736;2023-10-31T05:43:13;19.63;;;13.43;;
59998;SDS011;45859;51.378;6.736;2023-10-31T05:45:39;8.90;;;3.77;;
59998;SDS011;45859;51.378;6.736;2023-10-31T05:48:05;16.53;;;13.63;;
59998;SDS011;45859;51.378;6.736;2023-10-31T05:50:32;6.30;;;3.70;;
59998;SDS011;45859;51.378;6.736;2023-10-31T05:52:58;10.43;;;4.67;;
59998;SDS011;45859;51.378;6.736;2023-10-31T05:55:24;17.97;;;12.77;;
59998;SDS011;45859;51.378;6.736;2023-10-31T05:57:50;10.33;;;4.87;;
59998;SDS011;45859;51.378;6.736;2023-10-31T06:00:16;14.80;;;5.03;;
59998;SDS011;45859;51.378;6.736;2023-10-31T06:02:42;4.17;;;2.87;;
59998;SDS011;45859;51.378;6.736;2023-10-31T06:05:08;16.23;;;11.83;;
59998;SDS011;45859;51.378;6.736;2023-10-31T06:07:34;16.70;;;13.17;;
59998;SDS011;45859;51.378;6.736;2023-10-31T06:10:00;15.63;;;6.00;;
59998;SDS011;45859;51.378;6.736;2023-10-31T06:12:27;10.57;;;4.50;;
59998;SDS011;45859;51.378;6.736;2023-10-31T06:14:53;8.13;;;4.63;;
59998;SDS011;45859;51.378;6.736;2023-10-31T06:17:20;22.90;;;18.57;;
59998;SDS011;45859;51.378;6.736;2023-10-31T06:19:46;22.77;;;19.83;;
59998;SDS011;45859;51.378;6.736;2023-10-31T06:22:12;12.07;;;7.17;;
59998;SDS011;45859;51.378;6.736;2023-10-31T06:24:38;16.83;;;8.07;;
59998;SDS011;45859;51.378;6.736;2023-10-31T06:27:05;34.23;;;22.93;;
59998;SDS011;45859;51.378;6.736;2023-10-31T06:29:31;31.83;;;13.70;;
59998;SDS011;45859;51.378;6.736;2023-10-31T06:31:57;26.93;;;21.00;;
59998;SDS011;45859;51.378;6.736;2023-10-31T06:34:23;22.27;;;17.70;;
59998;SDS011;45859;51.378;6.736;2023-10-31T06:36:49;10.67;;;6.07;;
59998;SDS011;45859;51.378;6.736;2023-10-31T06:39:17;10.30;;;5.67;;
59998;SDS011;45859;51.378;6.736;2023-10-31T06:41:43;18.47;;;15.27;;
59998;SDS011;45859;51.378;6.736;2023-10-31T06:44:09;24.50;;;19.37;;
59998;SDS011;45859;51.378;6.736;2023-10-31T06:46:35;25.73;;;19.03;;
59998;SDS011;45859;51.378;6.736;2023-10-31T06:49:01;18.13;;;9.03;;
59998;SDS011;45859;51.378;6.736;2023-10-31T06:51:27;22.83;;;18.10;;
59998;SDS011;45859;51.378;6.736;2023-10-31T06:53:53;15.60;;;7.93;;
59998;SDS011;45859;51.378;6.736;2023-10-31T06:56:19;26.50;;;20.17;;
59998;SDS011;45859;51.378;6.736;2023-10-31T06:58:45;27.80;;;20.90;;
59998;SDS011;45859;51.378;6.736;2023-10-31T07:01:11;25.43;;;10.63;;
59998;SDS011;45859;51.378;6.736;2023-10-31T07:03:38;29.73;;;23.20;;
59998;SDS011;45859;51.378;6.736;2023-10-31T07:06:04;32.00;;;24.17;;
59998;SDS011;45859;51.378;6.736;2023-10-31T07:08:30;20.53;;;10.50;;
59998;SDS011;45859;51.378;6.736;2023-10-31T07:10:56;21.57;;;12.10;;
59998;SDS011;45859;51.378;6.736;2023-10-31T07:13:22;27.33;;;21.87;;
59998;SDS011;45859;51.378;6.736;2023-10-31T07:15:48;33.87;;;25.87;;
59998;SDS011;45859;51.378;6.736;2023-10-31T07:18:14;30.13;;;24.60;;
59998;SDS011;45859;51.378;6.736;2023-10-31T07:20:44;28.97;;;22.67;;
59998;SDS011;45859;51.378;6.736;2023-10-31T07:23:10;25.67;;;21.10;;
59998;SDS011;45859;51.378;6.736;2023-10-31T07:25:36;15.67;;;8.30;;
59998;SDS011;45859;51.378;6.736;2023-10-31T07:28:02;10.67;;;6.13;;
59998;SDS011;45859;51.378;6.736;2023-10-31T07:30:28;20.07;;;16.83;;
59998;SDS011;45859;51.378;6.736;2023-10-31T07:32:55;22.17;;;17.53;;
59998;SDS011;45859;51.378;6.736;2023-10-31T07:35:21;13.03;;;6.47;;
59998;SDS011;45859;51.378;6.736;2023-10-31T07:37:47;15.47;;;7.17;;
59998;SDS011;45859;51.378;6.736;2023-10-31T07:40:13;21.07;;;18.77;;
59998;SDS011;45859;51.378;6.736;2023-10-31T07:42:39;22.23;;;18.37;;
59998;SDS011;45859;51.378;6.736;2023-10-31T07:45:14;20.87;;;18.67;;
59998;SDS011;45859;51.378;6.736;2023-10-31T07:47:43;23.10;;;19.20;;
59998;SDS011;45859;51.378;6.736;2023-10-31T07:50:09;22.50;;;18.13;;
59998;SDS011;45859;51.378;6.736;2023-10-31T07:52:35;24.03;;;18.93;;
59998;SDS011;45859;51.378;6.736;2023-10-31T07:55:02;17.33;;;9.63;;
59998;SDS011;45859;51.378;6.736;2023-10-31T07:57:28;18.27;;;7.70;;
59998;SDS011;45859;51.378;6.736;2023-10-31T07:59:54;9.27;;;6.47;;
59998;SDS011;45859;51.378;6.736;2023-10-31T08:02:20;17.77;;;15.50;;
59998;SDS011;45859;51.378;6.736;2023-10-31T08:04:46;20.00;;;15.87;;
59998;SDS011;45859;51.378;6.736;2023-10-31T08:07:12;19.57;;;16.40;;
59998;SDS011;45859;51.378;6.736;2023-10-31T08:09:38;16.23;;;14.40;;
59998;SDS011;45859;51.378;6.736;2023-10-31T08:12:04;18.53;;;13.10;;
59998;SDS011;45859;51.378;6.736;2023-10-31T08:14:33;10.23;;;5.60;;
59998;SDS011;45859;51.378;6.736;2023-10-31T08:16:59;15.37;;;12.80;;
59998;SDS011;45859;51.378;6.736;2023-10-31T08:19:25;15.63;;;12.17;;
59998;SDS011;45859;51.378;6.736;2023-10-31T08:21:51;9.07;;;5.00;;
59998;SDS011;45859;51.378;6.736;2023-10-31T08:24:18;11.00;;;5.87;;
59998;SDS011;45859;51.378;6.736;2023-10-31T08:26:44;7.07;;;4.70;;
59998;SDS011;45859;51.378;6.736;2023-10-31T08:29:10;10.77;;;5.43;;
59998;SDS011;45859;51.378;6.736;2023-10-31T08:31:36;17.03;;;14.03;;
59998;SDS011;45859;51.378;6.736;2023-10-31T08:34:03;15.80;;;14.00;;
59998;SDS011;45859;51.378;6.736;2023-10-31T08:36:29;14.97;;;12.40;;
59998;SDS011;45859;51.378;6.736;2023-10-31T08:38:55;13.97;;;11.60;;
59998;SDS011;45859;51.378;6.736;2023-10-31T08:41:21;15.03;;;11.63;;
59998;SDS011;45859;51.378;6.736;2023-10-31T08:43:53;13.03;;;11.73;;
59998;SDS011;45859;51.378;6.736;2023-10-31T08:46:32;14.10;;;11.50;;
59998;SDS011;45859;51.378;6.736;2023-10-31T08:48:58;16.50;;;13.27;;
59998;SDS011;45859;51.378;6.736;2023-10-31T08:51:28;23.07;;;16.10;;
59998;SDS011;45859;51.378;6.736;2023-10-31T08:53:57;19.13;;;15.03;;
59998;SDS011;45859;51.378;6.736;2023-10-31T08:56:23;18.57;;;13.37;;
59998;SDS011;45859;51.378;6.736;2023-10-31T08:58:48;18.20;;;13.27;;
59998;SDS011;45859;51.378;6.736;2023-10-31T09:01:14;15.53;;;11.33;;
59998;SDS011;45859;51.378;6.736;2023-10-31T09:03:40;12.53;;;8.67;;
59998;SDS011;45859;51.378;6.736;2023-10-31T09:06:09;9.70;;;8.57;;
59998;SDS011;45859;51.378;6.736;2023-10-31T09:08:35;12.63;;;9.17;;
59998;SDS011;45859;51.378;6.736;2023-10-31T09:11:04;9.47;;;7.97;;
59998;SDS011;45859;51.378;6.736;2023-10-31T09:13:30;11.07;;;9.20;;
59998;SDS011;45859;51.378;6.736;2023-10-31T09:15:59;12.83;;;9.60;;
59998;SDS011;45859;51.378;6.736;2023-10-31T09:18:25;13.20;;;9.57;;
59998;SDS011;45859;51.378;6.736;2023-10-31T09:20:52;10.63;;;8.70;;
59998;SDS011;45859;51.378;6.736;2023-10-31T09:23:24;11.50;;;10.30;;
59998;SDS011;45859;51.378;6.736;2023-10-31T09:25:50;13.20;;;10.83;;
59998;SDS011;45859;51.378;6.736;2023-10-31T09:28:17;12.43;;;10.77;;
59998;SDS011;45859;51.378;6.736;2023-10-31T09:30:43;15.60;;;11.40;;
59998;SDS011;45859;51.378;6.736;2023-10-31T09:33:10;15.07;;;12.67;;
59998;SDS011;45859;51.378;6.736;2023-10-31T09:35:35;16.20;;;12.97;;
59998;SDS011;45859;51.378;6.736;2023-10-31T09:38:02;16.70;;;13.20;;
59998;SDS011;45859;51.378;6.736;2023-10-31T09:40:28;16.37;;;12.83;;
59998;SDS011;45859;51.378;6.736;2023-10-31T09:42:54;15.20;;;12.33;;
59998;SDS011;45859;51.378;6.736;2023-10-31T09:45:20;19.97;;;13.43;;
59998;SDS011;45859;51.378;6.736;2023-10-31T09:47:46;18.37;;;13.17;;
59998;SDS011;45859;51.378;6.736;2023-10-31T09:50:11;19.77;;;14.27;;
59998;SDS011;45859;51.378;6.736;2023-10-31T09:52:38;22.60;;;14.57;;
59998;SDS011;45859;51.378;6.736;2023-10-31T09:55:05;17.90;;;13.17;;
59998;SDS011;45859;51.378;6.736;2023-10-31T09:57:31;18.90;;;13.73;;
59998;SDS011;45859;51.378;6.736;2023-10-31T09:59:57;20.43;;;14.37;;
59998;SDS011;45859;51.378;6.736;2023-10-31T10:02:24;17.97;;;13.67;;
59998;SDS011;45859;51.378;6.736;2023-10-31T10:04:50;18.43;;;13.53;;
59998;SDS011;45859;51.378;6.736;2023-10-31T10:07:17;21.13;;;14.47;;
59998;SDS011;45859;51.378;6.736;2023-10-31T10:09:44;20.63;;;14.23;;
59998;SDS011;45859;51.378;6.736;2023-10-31T10:12:15;16.73;;;10.97;;
59998;SDS011;45859;51.378;6.736;2023-10-31T10:14:41;15.15;;;9.80;;
59998;SDS011;45859;51.378;6.736;2023-10-31T10:17:14;20.17;;;11.80;;
59998;SDS011;45859;51.378;6.736;2023-10-31T10:19:41;18.00;;;12.30;;
59998;SDS011;45859;51.378;6.736;2023-10-31T10:22:07;15.73;;;10.63;;
59998;SDS011;45859;51.378;6.736;2023-10-31T10:24:33;15.30;;;9.20;;
59998;SDS011;45859;51.378;6.736;2023-10-31T10:26:59;12.90;;;8.90;;
59998;SDS011;45859;51.378;6.736;2023-10-31T10:29:25;16.27;;;11.30;;
59998;SDS011;45859;51.378;6.736;2023-10-31T10:31:51;25.70;;;18.30;;
59998;SDS011;45859;51.378;6.736;2023-10-31T10:34:18;26.90;;;15.90;;
59998;SDS011;45859;51.378;6.736;2023-10-31T10:36:48;29.73;;;18.27;;
59998;SDS011;45859;51.378;6.736;2023-10-31T10:39:18;14.50;;;9.88;;
59998;SDS011;45859;51.378;6.736;2023-10-31T10:41:45;12.23;;;9.20;;
59998;SDS011;45859;51.378;6.736;2023-10-31T10:44:16;12.73;;;9.40;;
59998;SDS011;45859;51.378;6.736;2023-10-31T10:46:42;20.53;;;12.47;;
59998;SDS011;45859;51.378;6.736;2023-10-31T10:49:12;15.70;;;10.48;;
59998;SDS011;45859;51.378;6.736;2023-10-31T10:51:48;16.97;;;11.47;;
59998;SDS011;45859;51.378;6.736;2023-10-31T10:54:26;19.30;;;12.10;;
59998;SDS011;45859;51.378;6.736;2023-10-31T10:57:48;11.57;;;8.07;;
59998;SDS011;45859;51.378;6.736;2023-10-31T10:59:49;9.50;;;6.13;;
59998;SDS011;45859;51.378;6.736;2023-10-31T11:02:18;12.10;;;7.80;;
59998;SDS011;45859;51.378;6.736;2023-10-31T11:04:45;12.57;;;6.77;;
59998;SDS011;45859;51.378;6.736;2023-10-31T11:07:11;12.70;;;8.10;;
59998;SDS011;45859;51.378;6.736;2023-10-31T11:09:37;12.07;;;7.77;;
59998;SDS011;45859;51.378;6.736;2023-10-31T11:12:06;16.77;;;9.17;;
59998;SDS011;45859;51.378;6.736;2023-10-31T11:14:33;13.90;;;7.80;;
59998;SDS011;45859;51.378;6.736;2023-10-31T11:17:01;16.00;;;9.67;;
59998;SDS011;45859;51.378;6.736;2023-10-31T11:19:34;9.60;;;6.23;;
59998;SDS011;45859;51.378;6.736;2023-10-31T11:22:01;17.70;;;10.00;;
59998;SDS011;45859;51.378;6.736;2023-10-31T11:24:33;19.30;;;12.30;;
59998;SDS011;45859;51.378;6.736;2023-10-31T11:27:00;11.50;;;6.87;;
59998;SDS011;45859;51.378;6.736;2023-10-31T11:29:27;18.87;;;9.83;;
59998;SDS011;45859;51.378;6.736;2023-10-31T11:31:56;15.20;;;7.20;;
59998;SDS011;45859;51.378;6.736;2023-10-31T11:34:22;11.90;;;6.20;;
59998;SDS011;45859;51.378;6.736;2023-10-31T11:36:50;11.13;;;5.43;;
59998;SDS011;45859;51.378;6.736;2023-10-31T11:39:21;8.27;;;4.40;;
59998;SDS011;45859;51.378;6.736;2023-10-31T11:41:53;10.52;;;4.03;;
59998;SDS011;45859;51.378;6.736;2023-10-31T11:44:25;9.23;;;3.78;;
59998;SDS011;45859;51.378;6.736;2023-10-31T11:46:52;11.95;;;5.30;;
59998;SDS011;45859;51.378;6.736;2023-10-31T11:52:08;8.93;;;3.90;;
59998;SDS011;45859;51.378;6.736;2023-10-31T11:54:39;6.73;;;3.50;;
59998;SDS011;45859;51.378;6.736;2023-10-31T11:57:06;5.37;;;2.70;;
59998;SDS011;45859;51.378;6.736;2023-10-31T11:59:38;7.07;;;3.27;;
59998;SDS011;45859;51.378;6.736;2023-10-31T12:02:14;7.73;;;3.43;;
59998;SDS011;45859;51.378;6.736;2023-10-31T12:04:40;6.00;;;2.80;;
59998;SDS011;45859;51.378;6.736;2023-10-31T12:07:06;5.77;;;3.40;;
59998;SDS011;45859;51.378;6.736;2023-10-31T12:09:32;5.50;;;3.03;;
59998;SDS011;45859;51.378;6.736;2023-10-31T12:11:58;9.60;;;4.83;;
59998;SDS011;45859;51.378;6.736;2023-10-31T12:14:24;10.77;;;6.10;;
59998;SDS011;45859;51.378;6.736;2023-10-31T12:16:50;9.53;;;4.47;;
59998;SDS011;45859;51.378;6.736;2023-10-31T12:19:16;6.60;;;3.80;;
59998;SDS011;45859;51.378;6.736;2023-10-31T12:21:45;9.87;;;4.30;;
59998;SDS011;45859;51.378;6.736;2023-10-31T12:24:14;14.37;;;5.63;;
59998;SDS011;45859;51.378;6.736;2023-10-31T12:26:40;6.23;;;3.33;;
59998;SDS011;45859;51.378;6.736;2023-10-31T12:31:33;7.47;;;4.63;;
59998;SDS011;45859;51.378;6.736;2023-10-31T12:34:05;9.47;;;5.80;;
59998;SDS011;45859;51.378;6.736;2023-10-31T12:36:31;4.53;;;2.87;;
59998;SDS011;45859;51.378;6.736;2023-10-31T12:38:57;6.63;;;3.43;;
59998;SDS011;45859;51.378;6.736;2023-10-31T12:41:23;4.20;;;2.27;;
59998;SDS011;45859;51.378;6.736;2023-10-31T12:43:49;2.90;;;2.30;;
59998;SDS011;45859;51.378;6.736;2023-10-31T12:46:28;4.07;;;2.60;;
59998;SDS011;45859;51.378;6.736;2023-10-31T12:48:55;3.90;;;2.67;;
59998;SDS011;45859;51.378;6.736;2023-10-31T12:51:21;3.77;;;2.40;;
59998;SDS011;45859;51.378;6.736;2023-10-31T12:53:48;3.23;;;1.80;;
59998;SDS011;45859;51.378;6.736;2023-10-31T12:58:59;6.77;;;2.90;;
59998;SDS011;45859;51.378;6.736;2023-10-31T13:01:25;6.47;;;2.63;;
59998;SDS011;45859;51.378;6.736;2023-10-31T13:03:52;5.27;;;2.67;;
59998;SDS011;45859;51.378;6.736;2023-10-31T13:06:18;3.43;;;2.10;;
59998;SDS011;45859;51.378;6.736;2023-10-31T13:08:45;7.80;;;2.20;;
59998;SDS011;45859;51.378;6.736;2023-10-31T13:11:13;10.57;;;5.03;;
59998;SDS011;45859;51.378;6.736;2023-10-31T13:13:39;5.77;;;2.83;;
59998;SDS011;45859;51.378;6.736;2023-10-31T13:16:05;7.73;;;3.20;;
59998;SDS011;45859;51.378;6.736;2023-10-31T13:18:31;6.63;;;3.07;;
59998;SDS011;45859;51.378;6.736;2023-10-31T13:20:59;5.97;;;2.63;;
59998;SDS011;45859;51.378;6.736;2023-10-31T13:23:24;5.07;;;2.93;;
59998;SDS011;45859;51.378;6.736;2023-10-31T13:25:50;3.77;;;2.37;;
59998;SDS011;45859;51.378;6.736;2023-10-31T13:28:16;3.60;;;2.60;;
59998;SDS011;45859;51.378;6.736;2023-10-31T13:30:42;6.37;;;2.80;;
59998;SDS011;45859;51.378;6.736;2023-10-31T13:33:08;5.27;;;2.50;;
59998;SDS011;45859;51.378;6.736;2023-10-31T13:35:34;4.60;;;2.53;;
59998;SDS011;45859;51.378;6.736;2023-10-31T13:38:00;5.87;;;2.70;;
59998;SDS011;45859;51.378;6.736;2023-10-31T13:40:26;9.27;;;3.83;;
59998;SDS011;45859;51.378;6.736;2023-10-31T13:42:52;5.07;;;2.90;;
59998;SDS011;45859;51.378;6.736;2023-10-31T13:45:18;8.07;;;3.60;;
59998;SDS011;45859;51.378;6.736;2023-10-31T13:47:44;6.87;;;4.13;;
59998;SDS011;45859;51.378;6.736;2023-10-31T13:50:10;11.93;;;4.67;;
59998;SDS011;45859;51.378;6.736;2023-10-31T13:52:36;15.80;;;9.10;;
59998;SDS011;45859;51.378;6.736;2023-10-31T13:55:04;12.43;;;5.90;;
59998;SDS011;45859;51.378;6.736;2023-10-31T13:57:30;11.60;;;5.43;;
59998;SDS011;45859;51.378;6.736;2023-10-31T13:59:55;10.10;;;5.23;;
59998;SDS011;45859;51.378;6.736;2023-10-31T14:02:21;11.43;;;7.00;;
59998;SDS011;45859;51.378;6.736;2023-10-31T14:04:47;15.30;;;8.33;;
59998;SDS011;45859;51.378;6.736;2023-10-31T14:07:17;13.40;;;5.23;;
59998;SDS011;45859;51.378;6.736;2023-10-31T14:09:47;6.67;;;3.00;;
59998;SDS011;45859;51.378;6.736;2023-10-31T14:12:13;5.90;;;3.80;;
59998;SDS011;45859;51.378;6.736;2023-10-31T14:14:39;6.67;;;3.50;;
59998;SDS011;45859;51.378;6.736;2023-10-31T14:17:05;8.37;;;2.67;;
59998;SDS011;45859;51.378;6.736;2023-10-31T14:19:31;7.13;;;2.27;;
59998;SDS011;45859;51.378;6.736;2023-10-31T14:21:57;4.37;;;1.80;;
59998;SDS011;45859;51.378;6.736;2023-10-31T14:24:23;5.73;;;2.07;;
59998;SDS011;45859;51.378;6.736;2023-10-31T14:26:49;8.30;;;3.20;;
59998;SDS011;45859;51.378;6.736;2023-10-31T14:29:15;14.13;;;6.43;;
59998;SDS011;45859;51.378;6.736;2023-10-31T14:31:41;8.80;;;4.20;;
59998;SDS011;45859;51.378;6.736;2023-10-31T14:34:07;6.23;;;2.60;;
59998;SDS011;45859;51.378;6.736;2023-10-31T14:36:34;7.23;;;3.30;;
59998;SDS011;45859;51.378;6.736;2023-10-31T14:39:00;8.13;;;4.20;;